createdAt,value
2022-12-31T00:00:24.803Z,17.25
2022-12-31T00:03:27.978Z,22.33
2022-12-31T00:06:33.121Z,20.52
2022-12-31T00:09:36.315Z,23.05
2022-12-31T00:12:38.913Z,20.73
2022-12-31T00:15:43.044Z,20.77
2022-12-31T00:18:47.676Z,17.40
2022-12-31T00:21:51.037Z,22.15
2022-12-31T00:24:53.751Z,24.12
2022-12-31T00:27:56.592Z,19.37
2022-12-31T00:31:09.696Z,24.20
2022-12-31T00:34:12.692Z,28.30
2022-12-31T00:37:15.334Z,21.25
2022-12-31T00:40:18.322Z,17.23
2022-12-31T00:43:20.870Z,23.20
2022-12-31T00:46:25.090Z,26.70
2022-12-31T00:49:27.827Z,18.60
2022-12-31T00:52:30.703Z,19.80
2022-12-31T00:55:33.322Z,18.75
2022-12-31T00:58:37.418Z,19.95
2022-12-31T01:01:40.840Z,17.50
2022-12-31T01:04:44.633Z,21.95
2022-12-31T01:07:47.262Z,20.02
2022-12-31T01:11:08.878Z,21.12
2022-12-31T01:14:15.274Z,24.73
2022-12-31T01:17:18.119Z,24.30
2022-12-31T01:20:20.991Z,23.65
2022-12-31T01:23:23.839Z,22.15
2022-12-31T01:26:26.795Z,22.67
2022-12-31T01:29:29.863Z,28.85
2022-12-31T01:32:32.907Z,19.67
2022-12-31T01:35:36.506Z,17.58
2022-12-31T01:38:39.209Z,20.65
2022-12-31T01:41:44.839Z,12.65
2022-12-31T01:44:55.968Z,12.85
2022-12-31T01:48:00.284Z,12.63
2022-12-31T01:51:03.250Z,15.30
2022-12-31T01:54:10.801Z,14.60
2022-12-31T01:57:14.332Z,14.18
2022-12-31T02:00:17.603Z,11.52
2022-12-31T02:03:22.787Z,17.12
2022-12-31T02:06:38.578Z,15.50
2022-12-31T02:09:42.643Z,18.73
2022-12-31T02:12:46.256Z,15.13
2022-12-31T02:16:08.086Z,13.75
2022-12-31T02:19:49.331Z,17.87
2022-12-31T02:23:16.918Z,17.37
2022-12-31T02:27:04.251Z,16.60
2022-12-31T02:30:08.982Z,11.45
2022-12-31T02:33:19.260Z,13.48
2022-12-31T02:36:27.977Z,14.43
2022-12-31T02:42:34.550Z,12.32
2022-12-31T02:45:47.543Z,19.67
2022-12-31T02:49:02.360Z,16.12
2022-12-31T02:52:21.189Z,16.27
2022-12-31T02:55:24.022Z,14.63
2022-12-31T02:58:57.490Z,13.62
2022-12-31T03:02:15.995Z,14.38
2022-12-31T03:05:23.287Z,18.50
2022-12-31T03:08:26.874Z,21.52
2022-12-31T03:11:48.105Z,16.45
2022-12-31T03:14:51.504Z,21.00
2022-12-31T03:18:07.517Z,22.40
2022-12-31T03:21:32.022Z,23.77
2022-12-31T03:24:53.304Z,23.15
2022-12-31T03:27:56.822Z,16.67
2022-12-31T03:31:02.494Z,16.20
2022-12-31T03:34:05.329Z,18.37
2022-12-31T03:37:08.031Z,16.98
2022-12-31T03:40:13.656Z,16.83
2022-12-31T03:43:16.941Z,15.63
2022-12-31T03:46:19.869Z,21.80
2022-12-31T03:49:22.440Z,16.75
2022-12-31T03:52:26.043Z,14.40
2022-12-31T03:55:28.757Z,14.50
2022-12-31T03:58:31.618Z,13.90
2022-12-31T04:01:34.236Z,15.77
2022-12-31T04:04:37.080Z,22.20
2022-12-31T04:07:40.109Z,16.52
2022-12-31T04:10:43.151Z,19.40
2022-12-31T04:13:45.814Z,21.95
2022-12-31T04:16:48.645Z,21.33
2022-12-31T04:19:51.369Z,21.58
2022-12-31T04:22:54.278Z,24.65
2022-12-31T04:25:57.035Z,27.17
2022-12-31T04:28:59.945Z,29.95
2022-12-31T04:32:03.431Z,22.25
2022-12-31T04:35:07.478Z,19.92
2022-12-31T04:38:10.326Z,28.00
2022-12-31T04:41:19.794Z,20.88
2022-12-31T04:44:22.440Z,26.23
2022-12-31T04:47:25.231Z,30.60
2022-12-31T04:50:27.867Z,19.55
2022-12-31T04:53:31.519Z,44.10
2022-12-31T04:56:36.649Z,28.12
2022-12-31T04:59:39.893Z,24.15
2022-12-31T05:02:42.608Z,40.03
2022-12-31T05:05:45.566Z,23.58
2022-12-31T05:08:49.255Z,38.15
2022-12-31T05:11:52.175Z,33.10
2022-12-31T05:14:54.730Z,33.33
2022-12-31T05:17:57.601Z,29.83
2022-12-31T05:21:02.621Z,27.30
2022-12-31T05:24:05.941Z,27.98
2022-12-31T05:27:10.839Z,30.10
2022-12-31T05:30:14.501Z,27.40
2022-12-31T05:33:18.423Z,25.95
2022-12-31T05:36:21.260Z,36.92
2022-12-31T05:39:24.240Z,33.03
2022-12-31T05:42:28.387Z,19.30
2022-12-31T05:45:31.461Z,22.15
2022-12-31T05:48:34.625Z,28.70
2022-12-31T05:51:37.232Z,26.55
2022-12-31T05:54:40.072Z,29.58
2022-12-31T05:57:42.718Z,24.77
2022-12-31T06:00:46.196Z,33.53
2022-12-31T06:03:49.182Z,24.15
2022-12-31T06:06:52.040Z,25.25
2022-12-31T06:09:55.153Z,21.40
2022-12-31T06:12:57.952Z,32.08
2022-12-31T06:16:07.976Z,30.98
2022-12-31T06:19:10.712Z,24.25
2022-12-31T06:22:13.922Z,25.80
2022-12-31T06:25:16.526Z,26.70
2022-12-31T06:28:20.579Z,28.75
2022-12-31T06:31:23.432Z,30.60
2022-12-31T06:34:26.396Z,29.75
2022-12-31T06:37:28.988Z,34.22
2022-12-31T06:40:31.883Z,36.10
2022-12-31T06:43:35.171Z,31.33
2022-12-31T06:46:38.270Z,31.85
2022-12-31T06:49:40.891Z,31.08
2022-12-31T06:52:43.959Z,30.40
2022-12-31T06:55:48.919Z,27.92
2022-12-31T06:58:52.925Z,25.45
2022-12-31T07:02:17.396Z,22.45
2022-12-31T07:05:41.988Z,30.50
2022-12-31T07:09:04.475Z,25.75
2022-12-31T07:12:25.088Z,27.37
2022-12-31T07:16:00.037Z,34.53
2022-12-31T07:19:15.083Z,20.90
2022-12-31T07:22:18.035Z,28.83
2022-12-31T07:25:23.499Z,29.10
2022-12-31T07:28:32.041Z,24.77
2022-12-31T07:32:11.247Z,29.48
2022-12-31T07:36:01.369Z,25.08
2022-12-31T07:39:14.869Z,27.62
2022-12-31T07:42:33.143Z,23.23
2022-12-31T07:48:45.039Z,22.50
2022-12-31T07:51:48.167Z,31.85
2022-12-31T07:54:51.372Z,22.40
2022-12-31T07:58:19.251Z,29.83
2022-12-31T08:01:34.804Z,25.98
2022-12-31T08:04:59.183Z,29.20
2022-12-31T08:08:38.841Z,28.77
2022-12-31T08:11:52.473Z,30.12
2022-12-31T08:14:55.201Z,31.52
2022-12-31T08:17:58.364Z,27.15
2022-12-31T08:21:34.663Z,24.33
2022-12-31T08:24:47.891Z,47.80
2022-12-31T08:28:05.705Z,37.00
2022-12-31T08:34:40.958Z,18.42
2022-12-31T08:37:54.062Z,20.35
2022-12-31T08:41:15.403Z,23.77
2022-12-31T08:44:24.638Z,23.87
2022-12-31T08:48:00.021Z,34.28
2022-12-31T08:51:05.445Z,28.87
2022-12-31T08:54:12.369Z,28.42
2022-12-31T08:57:23.261Z,27.95
2022-12-31T09:00:27.627Z,29.42
2022-12-31T09:03:42.796Z,33.10
2022-12-31T09:06:59.659Z,22.70
2022-12-31T09:10:11.522Z,30.37
2022-12-31T09:13:38.117Z,28.60
2022-12-31T09:16:52.290Z,28.80
2022-12-31T09:19:55.582Z,27.52
2022-12-31T09:22:59.984Z,29.75
2022-12-31T09:26:27.621Z,34.00
2022-12-31T09:29:39.954Z,30.67
2022-12-31T09:33:09.011Z,32.25
2022-12-31T09:36:39.417Z,30.30
2022-12-31T09:39:47.751Z,28.45
2022-12-31T09:43:22.928Z,29.80
2022-12-31T09:46:50.426Z,34.08
2022-12-31T09:50:18.651Z,23.08
2022-12-31T09:53:54.796Z,26.77
2022-12-31T09:57:04.967Z,28.25
2022-12-31T10:00:39.270Z,35.55
2022-12-31T10:04:01.303Z,38.92
2022-12-31T10:07:22.374Z,28.05
2022-12-31T10:10:38.082Z,34.47
2022-12-31T10:13:59.756Z,36.75
2022-12-31T10:17:19.638Z,34.72
2022-12-31T10:20:57.944Z,30.00
2022-12-31T10:24:20.148Z,25.48
2022-12-31T10:27:49.672Z,37.80
2022-12-31T10:31:19.967Z,36.20
2022-12-31T10:34:25.486Z,32.00
2022-12-31T10:37:32.798Z,38.50
2022-12-31T10:41:00.200Z,34.05
2022-12-31T10:44:29.371Z,28.87
2022-12-31T10:48:09.258Z,30.77
2022-12-31T10:51:34.302Z,34.28
2022-12-31T10:54:51.211Z,35.70
2022-12-31T10:58:24.957Z,36.72
2022-12-31T11:01:30.497Z,35.22
2022-12-31T11:04:44.858Z,38.30
2022-12-31T11:07:56.715Z,29.60
2022-12-31T11:11:17.216Z,33.80
2022-12-31T11:14:38.725Z,35.80
2022-12-31T11:18:03.080Z,32.78
2022-12-31T11:21:27.775Z,32.03
2022-12-31T11:24:58.258Z,27.87
2022-12-31T11:28:19.144Z,34.35
2022-12-31T11:31:52.905Z,34.35
2022-12-31T11:35:02.466Z,30.85
2022-12-31T11:38:16.503Z,32.75
2022-12-31T11:41:39.731Z,35.08
2022-12-31T11:45:07.475Z,37.10
2022-12-31T11:48:30.946Z,39.75
2022-12-31T11:52:11.777Z,33.67
2022-12-31T11:55:38.891Z,36.97
2022-12-31T11:58:49.920Z,32.93
2022-12-31T12:02:00.675Z,40.83
2022-12-31T12:05:10.983Z,36.13
2022-12-31T12:08:15.461Z,28.95
2022-12-31T12:11:23.704Z,35.47
2022-12-31T12:14:35.243Z,39.58
2022-12-31T12:17:39.299Z,35.10
2022-12-31T12:20:46.337Z,37.45
2022-12-31T12:23:57.233Z,38.00
2022-12-31T12:26:59.819Z,37.00
2022-12-31T12:30:18.048Z,36.70
2022-12-31T12:33:21.069Z,27.80
2022-12-31T12:36:23.980Z,40.25
2022-12-31T12:39:29.835Z,39.17
2022-12-31T12:42:32.927Z,35.17
2022-12-31T12:45:51.829Z,42.13
2022-12-31T12:48:57.334Z,34.28
2022-12-31T12:52:08.939Z,39.05
2022-12-31T12:55:27.316Z,38.72
2022-12-31T12:59:24.280Z,35.05
2022-12-31T13:02:35.949Z,33.13
2022-12-31T13:05:41.389Z,37.75
2022-12-31T13:08:52.079Z,35.72
2022-12-31T13:12:07.164Z,32.40
2022-12-31T13:15:22.470Z,34.97
2022-12-31T13:18:57.758Z,33.80
2022-12-31T13:22:16.713Z,33.35
2022-12-31T13:25:35.302Z,35.13
2022-12-31T13:28:42.905Z,32.70
2022-12-31T13:31:47.432Z,37.00
2022-12-31T13:34:56.656Z,36.15
2022-12-31T13:38:06.914Z,37.60
2022-12-31T13:41:30.481Z,35.28
2022-12-31T13:45:04.509Z,38.45
2022-12-31T13:48:16.407Z,33.03
2022-12-31T13:51:45.515Z,35.65
2022-12-31T13:55:03.692Z,32.53
2022-12-31T13:58:35.609Z,24.17
2022-12-31T14:01:51.757Z,30.67
2022-12-31T14:05:06.527Z,33.70
2022-12-31T14:08:09.983Z,32.30
2022-12-31T14:11:21.721Z,34.65
2022-12-31T14:14:36.652Z,28.45
2022-12-31T14:18:05.428Z,30.00
2022-12-31T14:21:14.456Z,31.23
2022-12-31T14:24:47.715Z,27.95
2022-12-31T14:27:54.413Z,32.30
2022-12-31T14:31:44.854Z,32.38
2022-12-31T14:35:06.025Z,30.17
2022-12-31T14:38:47.420Z,29.17
2022-12-31T14:42:01.124Z,32.55
2022-12-31T14:45:35.491Z,33.65
2022-12-31T14:48:56.365Z,34.22
2022-12-31T14:52:26.650Z,32.05
2022-12-31T14:55:34.948Z,30.45
2022-12-31T14:58:40.333Z,26.70
2022-12-31T15:01:46.191Z,27.40
2022-12-31T15:04:49.339Z,29.12
2022-12-31T15:07:51.955Z,25.12
2022-12-31T15:11:14.456Z,25.23
2022-12-31T15:14:17.004Z,29.75
2022-12-31T15:17:19.814Z,18.70
2022-12-31T15:20:46.017Z,28.08
2022-12-31T15:23:49.889Z,25.48
2022-12-31T15:26:58.669Z,28.12
2022-12-31T15:30:02.381Z,24.63
2022-12-31T15:33:29.051Z,25.27
2022-12-31T15:36:35.631Z,22.37
2022-12-31T15:39:41.493Z,25.37
2022-12-31T15:42:55.528Z,25.00
2022-12-31T15:45:59.689Z,27.55
2022-12-31T15:49:10.288Z,23.23
2022-12-31T15:52:25.208Z,25.88
2022-12-31T15:55:28.072Z,26.65
2022-12-31T15:58:35.783Z,25.45
2022-12-31T16:01:42.026Z,24.92
2022-12-31T16:04:45.162Z,25.02
2022-12-31T16:07:48.243Z,26.65
2022-12-31T16:10:53.847Z,25.80
2022-12-31T16:13:58.753Z,25.55
2022-12-31T16:17:02.328Z,26.30
2022-12-31T16:20:26.411Z,24.17
2022-12-31T16:23:29.408Z,26.35
2022-12-31T16:26:54.771Z,31.10
2022-12-31T16:30:02.019Z,27.70
2022-12-31T16:33:07.197Z,28.75
2022-12-31T16:36:21.860Z,26.52
2022-12-31T16:39:35.925Z,29.48
2022-12-31T16:42:44.244Z,24.05
2022-12-31T16:45:47.330Z,25.17
2022-12-31T16:48:55.176Z,27.17
2022-12-31T16:52:20.618Z,30.30
2022-12-31T16:55:26.101Z,25.65
2022-12-31T16:58:35.231Z,27.27
2022-12-31T17:01:38.935Z,30.42
2022-12-31T17:04:48.052Z,26.17
2022-12-31T17:07:55.199Z,24.63
2022-12-31T17:10:58.195Z,24.63
2022-12-31T17:14:13.119Z,27.45
2022-12-31T17:17:23.698Z,20.52
2022-12-31T17:20:29.749Z,25.67
2022-12-31T17:23:35.786Z,24.37
2022-12-31T17:26:38.749Z,30.83
2022-12-31T17:29:41.972Z,25.73
2022-12-31T17:32:45.996Z,33.75
2022-12-31T17:35:54.171Z,26.50
2022-12-31T17:39:16.598Z,24.63
2022-12-31T17:42:26.729Z,32.72
2022-12-31T17:45:29.760Z,28.62
2022-12-31T17:48:32.476Z,40.45
2022-12-31T17:51:35.504Z,34.47
2022-12-31T17:54:38.580Z,29.15
2022-12-31T17:57:52.545Z,27.10
2022-12-31T18:00:55.683Z,32.10
2022-12-31T18:03:58.973Z,28.12
2022-12-31T18:07:01.651Z,27.00
2022-12-31T18:10:04.920Z,32.10
2022-12-31T18:13:15.358Z,30.02
2022-12-31T18:16:18.208Z,30.92
2022-12-31T18:19:54.398Z,31.30
2022-12-31T18:22:45.967Z,33.35
2022-12-31T18:25:48.822Z,30.70
2022-12-31T18:28:52.484Z,29.52
2022-12-31T18:31:55.163Z,32.00
2022-12-31T18:34:58.240Z,32.92
2022-12-31T18:38:01.136Z,31.05
2022-12-31T18:41:04.428Z,30.17
2022-12-31T18:44:07.486Z,31.90
2022-12-31T18:47:13.392Z,34.65
2022-12-31T18:50:17.141Z,36.75
2022-12-31T18:53:22.385Z,30.95
2022-12-31T18:56:25.316Z,31.12
2022-12-31T18:59:28.512Z,27.60
2022-12-31T19:02:31.300Z,34.53
2022-12-31T19:05:37.394Z,36.50
2022-12-31T19:08:40.066Z,41.03
2022-12-31T19:11:43.178Z,39.00
2022-12-31T19:14:45.846Z,40.05
2022-12-31T19:17:48.731Z,39.72
2022-12-31T19:20:52.160Z,44.42
2022-12-31T19:23:55.205Z,39.38
2022-12-31T19:26:58.011Z,50.40
2022-12-31T19:30:01.392Z,46.22
2022-12-31T19:33:04.342Z,47.72
2022-12-31T19:36:14.761Z,46.95
2022-12-31T19:39:21.433Z,42.42
2022-12-31T19:42:25.315Z,47.13
2022-12-31T19:45:29.343Z,44.05
2022-12-31T19:48:33.069Z,47.10
2022-12-31T19:51:35.813Z,53.60
2022-12-31T19:54:38.718Z,50.63
2022-12-31T19:57:41.662Z,50.20
2022-12-31T20:00:51.584Z,56.05
2022-12-31T20:03:57.910Z,46.35
2022-12-31T20:07:00.544Z,48.67
2022-12-31T20:10:04.788Z,47.28
2022-12-31T20:13:09.545Z,51.70
2022-12-31T20:16:15.315Z,43.35
2022-12-31T20:19:18.741Z,41.20
2022-12-31T20:22:21.661Z,54.42
2022-12-31T20:25:25.538Z,38.65
2022-12-31T20:28:28.877Z,53.90
2022-12-31T20:31:31.542Z,48.05
2022-12-31T20:34:34.505Z,44.88
2022-12-31T20:37:37.148Z,44.72
2022-12-31T20:40:46.394Z,42.22
2022-12-31T20:43:50.046Z,45.42
2022-12-31T20:46:53.002Z,48.60
2022-12-31T20:50:12.290Z,48.05
2022-12-31T20:53:15.499Z,41.97
2022-12-31T20:56:18.732Z,49.20
2022-12-31T20:59:21.697Z,51.00
2022-12-31T21:02:39.173Z,48.10
2022-12-31T21:05:51.573Z,55.53
2022-12-31T21:08:55.969Z,47.62
2022-12-31T21:12:17.404Z,43.92
2022-12-31T21:15:21.672Z,45.22
2022-12-31T21:18:24.808Z,47.00
2022-12-31T21:21:27.753Z,52.30
2022-12-31T21:24:30.552Z,55.33
2022-12-31T21:27:33.228Z,45.00
2022-12-31T21:30:38.934Z,53.83
2022-12-31T21:33:47.771Z,43.17
2022-12-31T21:36:50.774Z,47.13
2022-12-31T21:39:53.358Z,51.47
2022-12-31T21:42:56.777Z,41.25
2022-12-31T21:46:07.348Z,55.20
2022-12-31T21:49:10.296Z,43.40
2022-12-31T21:52:26.265Z,49.38
2022-12-31T21:55:47.605Z,38.78
2022-12-31T21:59:15.129Z,43.40
2022-12-31T22:02:37.085Z,52.42
2022-12-31T22:05:59.946Z,37.75
2022-12-31T22:09:03.043Z,38.47
2022-12-31T22:12:06.297Z,34.30
2022-12-31T22:15:14.856Z,36.08
2022-12-31T22:18:19.090Z,39.15
2022-12-31T22:21:23.954Z,37.35
2022-12-31T22:24:26.898Z,44.05
2022-12-31T22:27:30.128Z,46.78
2022-12-31T22:30:34.257Z,40.28
2022-12-31T22:33:37.030Z,41.35
2022-12-31T22:36:39.941Z,37.00
2022-12-31T22:39:44.667Z,37.65
2022-12-31T22:42:48.040Z,42.13
2022-12-31T22:45:50.553Z,35.28
2022-12-31T22:48:56.921Z,41.67
2022-12-31T22:52:01.836Z,39.88
2022-12-31T22:55:08.965Z,37.92
2022-12-31T22:58:11.499Z,53.05
2022-12-31T23:01:22.768Z,49.22
2022-12-31T23:04:25.370Z,44.85
2022-12-31T23:07:28.264Z,46.28
2022-12-31T23:10:49.737Z,35.50
2022-12-31T23:14:11.250Z,39.63
2022-12-31T23:17:37.769Z,36.42
2022-12-31T23:20:59.192Z,39.30
2022-12-31T23:24:04.533Z,45.88
2022-12-31T23:27:08.440Z,44.53
2022-12-31T23:30:11.836Z,43.50
2022-12-31T23:33:17.475Z,49.70
2022-12-31T23:36:20.230Z,39.83
2022-12-31T23:39:23.321Z,53.58
2022-12-31T23:42:26.176Z,51.10
2022-12-31T23:45:33.133Z,57.75
2022-12-31T23:48:36.139Z,58.40
2022-12-31T23:51:40.268Z,61.92
2022-12-31T23:54:42.907Z,62.47
2022-12-31T23:57:45.944Z,61.58
